Time;durP1;ratioP1;P1;durP2;ratioP2;P2;SDS_P1;SDS_P2;PMS_P1;PMS_P2;Temp;Humidity;BMP_temperature;BMP_pressure;BME280_temperature;BME280_humidity;BME280_pressure;Samples;Min_cycle;Max_cycle;Signal;HPM_P1;HPM_P2
2022/12/18 00:01:36;;;;;;;6.20;4.10;;;;;;;2.97;100.00;100480.00;5017517;28;20537;-76
2022/12/18 00:04:06;;;;;;;4.38;3.78;;;;;;;2.96;100.00;100486.25;5017654;28;20034;-77
2022/12/18 00:06:32;;;;;;;5.28;3.88;;;;;;;3.01;100.00;100475.25;5034396;28;20045;-76
2022/12/18 00:08:58;;;;;;;9.95;4.68;;;;;;;3.04;100.00;100469.66;5017286;28;20033;-76
2022/12/18 00:11:27;;;;;;;6.28;3.80;;;;;;;3.04;100.00;100470.53;5017882;28;20029;-76
2022/12/18 00:13:55;;;;;;;5.55;2.83;;;;;;;3.08;100.00;100476.41;5017380;28;20029;-76
2022/12/18 00:16:22;;;;;;;7.68;3.40;;;;;;;3.05;100.00;100463.38;5034008;28;20037;-76
2022/12/18 00:18:49;;;;;;;9.63;2.90;;;;;;;3.03;100.00;100462.69;5001003;28;20376;-76
2022/12/18 00:21:18;;;;;;;9.43;3.55;;;;;;;2.98;100.00;100467.56;5034088;28;20048;-77
2022/12/18 00:23:44;;;;;;;12.70;4.68;;;;;;;2.95;100.00;100460.69;5001023;28;20040;-77
2022/12/18 00:26:13;;;;;;;14.32;7.15;;;;;;;2.96;100.00;100454.38;5001228;28;20037;-76
2022/12/18 00:28:38;;;;;;;7.38;3.47;;;;;;;2.98;100.00;100460.41;5000780;28;20034;-77
2022/12/18 00:31:07;;;;;;;4.85;3.22;;;;;;;3.04;100.00;100459.91;5033335;28;20030;-77
2022/12/18 00:33:33;;;;;;;9.63;4.40;;;;;;;3.16;100.00;100465.09;5000905;28;20037;-76
2022/12/18 00:36:06;;;;;;;5.57;2.67;;;;;;;3.19;100.00;100457.69;5017448;28;20040;-77
2022/12/18 00:38:33;;;;;;;9.50;4.07;;;;;;;3.30;100.00;100459.41;5000991;28;20113;-77
2022/12/18 00:40:59;;;;;;;7.18;2.92;;;;;;;3.45;100.00;100449.22;5017057;28;20052;-79
2022/12/18 00:43:24;;;;;;;30.48;9.70;;;;;;;3.47;100.00;100456.09;5033688;28;20038;-76
2022/12/18 00:45:50;;;;;;;14.23;5.35;;;;;;;3.44;100.00;100437.75;5017099;28;20468;-77
2022/12/18 00:48:16;;;;;;;37.83;13.45;;;;;;;3.46;100.00;100443.75;5016851;28;20048;-77
2022/12/18 00:50:42;;;;;;;9.05;4.32;;;;;;;3.47;100.00;100426.84;5033320;28;20391;-79
2022/12/18 00:53:07;;;;;;;12.00;6.95;;;;;;;3.48;100.00;100430.34;5000535;28;20075;-78
2022/12/18 00:55:33;;;;;;;5.32;2.60;;;;;;;3.52;100.00;100419.31;5016807;28;20421;-77
2022/12/18 00:57:59;;;;;;;9.98;4.00;;;;;;;3.70;100.00;100418.59;5049241;28;20048;-77
2022/12/18 01:00:24;;;;;;;14.93;5.35;;;;;;;3.85;100.00;100411.03;5016610;28;20037;-77
2022/12/18 01:02:52;;;;;;;3.83;2.80;;;;;;;3.93;100.00;100413.84;5016658;28;20060;-75
2022/12/18 01:05:18;;;;;;;5.50;2.60;;;;;;;3.97;100.00;100396.63;4999872;28;20049;-75
2022/12/18 01:07:44;;;;;;;6.70;3.20;;;;;;;3.97;100.00;100402.78;5016589;28;20040;-75
2022/12/18 01:10:11;;;;;;;4.20;2.33;;;;;;;3.95;100.00;100396.75;5000244;28;20022;-75
2022/12/18 01:12:37;;;;;;;3.88;1.60;;;;;;;3.90;100.00;100382.22;5032770;28;20036;-76
2022/12/18 01:15:04;;;;;;;9.38;4.13;;;;;;;3.98;100.00;100390.31;4999847;28;20033;-77
2022/12/18 01:17:30;;;;;;;5.45;3.00;;;;;;;3.95;100.00;100385.28;5016555;28;20037;-78
2022/12/18 01:19:56;;;;;;;2.65;2.10;;;;;;;4.00;100.00;100375.06;5016154;28;20523;-77
2022/12/18 01:22:22;;;;;;;5.38;3.33;;;;;;;4.06;100.00;100374.47;5016097;28;20463;-77
2022/12/18 01:24:47;;;;;;;5.53;2.65;;;;;;;4.09;100.00;100371.53;5016252;28;20092;-76
2022/12/18 01:27:13;;;;;;;6.82;3.00;;;;;;;4.04;100.00;100368.44;5032087;28;20033;-77
2022/12/18 01:29:39;;;;;;;6.22;3.00;;;;;;;4.02;100.00;100364.25;5016134;28;20526;-77
2022/12/18 01:32:05;;;;;;;14.13;6.60;;;;;;;4.01;100.00;100357.25;4999587;28;20040;-75
2022/12/18 01:34:30;;;;;;;10.13;4.57;;;;;;;3.96;100.00;100355.03;4999911;28;20037;-78
2022/12/18 01:36:56;;;;;;;7.90;3.60;;;;;;;3.96;100.00;100347.88;4999735;28;20114;-77
2022/12/18 01:39:22;;;;;;;4.63;2.55;;;;;;;3.95;100.00;100338.22;5015271;28;20383;-79
2022/12/18 01:42:03;;;;;;;5.93;3.55;;;;;;;4.04;100.00;100331.19;5015702;28;20025;-79
2022/12/18 01:44:57;;;;;;;2.97;2.28;;;;;;;4.09;100.00;100330.78;5001594;28;20076;-77
2022/12/18 01:47:39;;;;;;;6.32;3.22;;;;;;;4.05;100.00;100311.63;5015674;28;20029;-79
2022/12/18 01:50:15;;;;;;;4.78;2.25;;;;;;;3.86;100.00;100263.78;5015747;28;20068;-77
2022/12/18 01:52:48;;;;;;;6.65;3.40;;;;;;;4.19;100.00;100305.81;5016050;28;20064;-77
2022/12/18 01:55:16;;;;;;;3.60;1.38;;;;;;;4.20;100.00;100290.69;4999365;28;20384;-77
2022/12/18 01:57:42;;;;;;;5.72;2.15;;;;;;;4.21;100.00;100295.03;5031554;28;20415;-78
2022/12/18 02:00:15;;;;;;;5.97;2.58;;;;;;;4.21;100.00;100288.84;5031560;28;20044;-78
2022/12/18 02:02:45;;;;;;;6.05;3.22;;;;;;;4.21;100.00;100286.19;5031695;28;20038;-79
2022/12/18 02:05:13;;;;;;;4.38;2.60;;;;;;;4.14;100.00;100276.13;5036289;28;20041;-77
2022/12/18 02:07:52;;;;;;;6.32;2.60;;;;;;;4.30;100.00;100286.16;5021889;28;20076;-78
2022/12/18 02:10:32;;;;;;;6.55;2.97;;;;;;;4.34;100.00;100263.59;5022369;28;20183;-77
2022/12/18 02:13:14;;;;;;;9.20;3.03;;;;;;;4.38;100.00;100254.31;5039569;28;20037;-77
2022/12/18 02:16:01;;;;;;;4.75;2.80;;;;;;;4.38;100.00;100249.00;5038234;28;20127;-77
2022/12/18 02:18:32;;;;;;;4.15;2.47;;;;;;;4.46;100.00;100253.56;5021802;28;20042;-77
2022/12/18 02:21:27;;;;;;;6.72;2.92;;;;;;;4.55;100.00;100262.50;5038793;28;20029;-78
2022/12/18 02:24:04;;;;;;;5.60;1.95;;;;;;;4.49;100.00;100245.28;5022156;28;20040;-75
2022/12/18 02:26:43;;;;;;;5.05;2.92;;;;;;;4.57;100.00;100249.88;5021794;28;20033;-78
2022/12/18 02:29:13;;;;;;;4.40;2.08;;;;;;;4.61;100.00;100244.09;5039384;28;20037;-75
2022/12/18 02:31:47;;;;;;;2.92;2.22;;;;;;;4.60;100.00;100247.78;5038434;28;20029;-78
2022/12/18 02:34:13;;;;;;;4.60;2.60;;;;;;;4.66;100.00;100245.47;5054906;28;20102;-77
2022/12/18 02:36:41;;;;;;;3.03;2.30;;;;;;;4.72;100.00;100248.38;5021829;28;20056;-77
2022/12/18 02:39:08;;;;;;;13.60;3.03;;;;;;;4.67;100.00;100247.16;5005466;28;20065;-76
2022/12/18 02:41:36;;;;;;;3.35;2.20;;;;;;;4.62;100.00;100229.78;5021231;28;20086;-77
2022/12/18 02:44:08;;;;;;;8.00;2.70;;;;;;;4.65;100.00;100235.81;5038167;28;20072;-77
2022/12/18 02:46:50;;;;;;;4.82;2.40;;;;;;;4.68;100.00;100232.84;5038195;28;20108;-76
2022/12/18 02:49:28;;;;;;;5.35;2.55;;;;;;;4.41;100.00;100195.44;5021627;28;20044;-76
2022/12/18 02:52:05;;;;;;;6.35;2.53;;;;;;;4.48;100.00;100218.84;5021308;28;20041;-77
2022/12/18 02:54:46;;;;;;;4.93;2.67;;;;;;;4.45;100.00;100219.13;5037984;28;20498;-79
2022/12/18 02:57:22;;;;;;;8.65;2.70;;;;;;;4.33;100.00;100211.34;5005567;28;20081;-76
2022/12/18 02:59:57;;;;;;;3.55;1.77;;;;;;;4.29;100.00;100198.50;5038351;28;20046;-77
2022/12/18 03:02:32;;;;;;;9.00;3.00;;;;;;;4.27;100.00;100197.81;5021900;28;20034;-78
2022/12/18 03:05:08;;;;;;;9.27;2.22;;;;;;;4.22;100.00;100173.47;5021765;28;20383;-77
2022/12/18 03:07:42;;;;;;;10.85;4.10;;;;;;;4.33;100.00;100187.38;5021897;28;20111;-76
2022/12/18 03:10:12;;;;;;;4.72;2.85;;;;;;;4.25;100.00;100163.34;5021953;28;20115;-77
2022/12/18 03:12:45;;;;;;;7.03;4.43;;;;;;;4.45;100.00;100166.72;5021622;28;20033;-77
2022/12/18 03:15:20;;;;;;;7.88;2.92;;;;;;;4.57;100.00;100156.69;5037581;28;20035;-76
2022/12/18 03:17:51;;;;;;;7.63;2.85;;;;;;;4.58;100.00;100142.41;5034301;28;20045;-77
2022/12/18 03:20:19;;;;;;;7.82;3.50;;;;;;;4.66;100.00;100130.97;5018506;28;20471;-77
2022/12/18 03:22:51;;;;;;;7.95;3.17;;;;;;;4.64;100.00;100139.13;5034656;28;20104;-77
2022/12/18 03:25:17;;;;;;;7.78;3.22;;;;;;;4.63;100.00;100113.47;5034780;28;20033;-77
2022/12/18 03:27:48;;;;;;;4.88;2.40;;;;;;;4.63;100.00;100121.44;5018557;28;20029;-79
2022/12/18 03:30:15;;;;;;;4.80;2.70;;;;;;;4.65;100.00;100114.16;5002242;28;20049;-77
2022/12/18 03:32:59;;;;;;;6.15;3.17;;;;;;;4.67;100.00;100114.84;5034838;28;20095;-77
2022/12/18 03:35:29;;;;;;;1.85;1.45;;;;;;;4.69;100.00;100104.88;5018657;28;20069;-77
2022/12/18 03:37:55;;;;;;;3.95;2.28;;;;;;;4.68;100.00;100102.34;5018267;28;20464;-76
2022/12/18 03:40:27;;;;;;;8.75;3.67;;;;;;;4.65;100.00;100090.19;5001808;28;20033;-77
2022/12/18 03:43:02;;;;;;;6.20;2.03;;;;;;;4.65;100.00;100084.03;5002179;28;20118;-78
2022/12/18 03:45:42;;;;;;;4.45;1.98;;;;;;;4.58;100.00;100057.19;5018446;28;20049;-77
2022/12/18 03:48:29;;;;;;;7.10;2.33;;;;;;;4.54;100.00;100071.78;5034587;28;20115;-76
2022/12/18 03:51:37;;;;;;;7.88;3.05;;;;;;;4.53;100.00;100067.47;5034240;28;20434;-77
2022/12/18 03:54:07;;;;;;;4.95;2.03;;;;;;;4.46;100.00;100059.25;5017121;28;20124;-76
2022/12/18 03:56:38;;;;;;;4.43;1.88;;;;;;;4.37;100.00;100065.50;5018460;28;20025;-76
2022/12/18 03:59:05;;;;;;;2.97;1.63;;;;;;;4.30;100.00;100059.94;5001405;28;20041;-77
2022/12/18 04:01:34;;;;;;;3.80;1.58;;;;;;;4.22;100.00;100051.88;5017281;28;20442;-77
2022/12/18 04:04:01;;;;;;;8.60;1.95;;;;;;;4.14;100.00;100046.50;5001390;28;20033;-76
2022/12/18 04:06:28;;;;;;;10.70;2.42;;;;;;;4.08;100.00;100041.78;5017256;28;20025;-76
2022/12/18 04:08:53;;;;;;;4.25;2.33;;;;;;;3.99;100.00;100037.34;5000824;28;20091;-76
2022/12/18 04:11:19;;;;;;;1.70;1.10;;;;;;;4.02;100.00;100040.53;5017932;28;20041;-76
2022/12/18 04:13:45;;;;;;;1.67;1.58;;;;;;;4.00;100.00;100031.06;5001423;28;20124;-77
2022/12/18 04:16:11;;;;;;;1.83;1.40;;;;;;;3.97;100.00;100017.06;5017602;28;20033;-76
2022/12/18 04:18:36;;;;;;;5.10;1.60;;;;;;;3.93;100.00;100004.22;5017451;28;20405;-75
2022/12/18 04:21:03;;;;;;;5.80;2.42;;;;;;;3.89;100.00;99984.22;5033878;28;20021;-75
2022/12/18 04:23:28;;;;;;;5.45;2.15;;;;;;;3.87;100.00;99979.06;5001135;28;20036;-76
2022/12/18 04:25:54;;;;;;;3.28;1.98;;;;;;;3.80;100.00;99958.56;5001044;28;20033;-75
2022/12/18 04:28:20;;;;;;;7.38;2.55;;;;;;;3.76;100.00;99950.06;5000688;28;20079;-76
2022/12/18 04:30:49;;;;;;;3.10;1.42;;;;;;;3.76;100.00;99950.06;5017366;28;20029;-76
2022/12/18 04:33:17;;;;;;;7.88;2.70;;;;;;;3.73;100.00;99935.25;5033100;28;20030;-76
2022/12/18 04:35:46;;;;;;;4.60;2.05;;;;;;;3.72;100.00;99930.06;5017207;28;20361;-76
2022/12/18 04:38:12;;;;;;;3.50;1.95;;;;;;;3.70;100.00;99921.38;5000578;28;20041;-75
2022/12/18 04:40:38;;;;;;;2.10;1.80;;;;;;;3.70;100.00;99902.78;5000834;28;20037;-77
2022/12/18 04:43:04;;;;;;;4.05;1.77;;;;;;;3.81;100.00;99891.06;5017231;28;20395;-75
2022/12/18 04:45:31;;;;;;;4.35;2.33;;;;;;;3.82;100.00;99872.31;5033063;28;20036;-76
2022/12/18 04:48:03;;;;;;;6.45;2.70;;;;;;;3.92;100.00;99867.75;5000803;28;20053;-75
2022/12/18 04:50:30;;;;;;;4.32;1.77;;;;;;;3.89;100.00;99865.41;5032961;28;20041;-76
2022/12/18 04:52:56;;;;;;;6.65;2.55;;;;;;;3.92;100.00;99854.44;5032925;28;20168;-76
2022/12/18 04:55:22;;;;;;;3.30;1.13;;;;;;;3.97;100.00;99854.00;5016766;28;20072;-76
2022/12/18 04:57:47;;;;;;;7.43;1.35;;;;;;;4.00;100.00;99837.72;5016715;28;20033;-76
2022/12/18 05:00:14;;;;;;;3.13;1.50;;;;;;;4.02;100.00;99830.38;5049448;28;20041;-76
2022/12/18 05:02:39;;;;;;;3.35;1.30;;;;;;;4.14;100.00;99828.31;5000244;28;20060;-76
2022/12/18 05:05:05;;;;;;;3.70;1.30;;;;;;;4.21;100.00;99825.84;5000493;28;20065;-76
2022/12/18 05:07:31;;;;;;;2.80;1.35;;;;;;;4.28;100.00;99805.59;5015988;28;20451;-76
2022/12/18 05:09:57;;;;;;;3.45;1.30;;;;;;;4.36;100.00;99795.81;5000432;28;20040;-76
2022/12/18 05:12:24;;;;;;;2.08;1.52;;;;;;;4.39;100.00;99792.00;5032636;28;20033;-76
2022/12/18 05:14:50;;;;;;;6.00;1.70;;;;;;;4.33;100.00;99766.88;5000199;28;20033;-76
2022/12/18 05:17:15;;;;;;;4.00;1.42;;;;;;;4.32;100.00;99762.56;5000123;28;20387;-76
2022/12/18 05:19:41;;;;;;;2.17;1.52;;;;;;;4.34;100.00;99755.25;4999912;28;20456;-76
2022/12/18 05:22:07;;;;;;;2.90;1.45;;;;;;;4.41;100.00;99737.63;5032735;28;20041;-76
2022/12/18 05:24:35;;;;;;;5.57;1.67;;;;;;;4.45;100.00;99740.00;5016314;28;20041;-77
2022/12/18 05:27:00;;;;;;;4.60;1.52;;;;;;;4.47;100.00;99737.97;5000317;28;20044;-76
2022/12/18 05:29:26;;;;;;;3.55;1.70;;;;;;;4.52;100.00;99733.00;4999993;28;20037;-77
2022/12/18 05:31:52;;;;;;;1.65;1.17;;;;;;;4.55;100.00;99727.34;5016266;28;20041;-76
2022/12/18 05:34:17;;;;;;;4.32;2.08;;;;;;;4.56;100.00;99721.06;4999569;28;20082;-76
2022/12/18 05:36:43;;;;;;;2.65;1.50;;;;;;;4.54;100.00;99707.06;5016145;28;20095;-76
2022/12/18 05:39:09;;;;;;;5.75;1.92;;;;;;;4.67;100.00;99706.59;5015306;28;20103;-76
2022/12/18 05:41:34;;;;;;;1.67;1.38;;;;;;;4.72;100.00;99699.78;5033402;28;20037;-77
2022/12/18 05:44:00;;;;;;;1.58;1.20;;;;;;;4.81;100.00;99692.63;5015620;28;20033;-76
2022/12/18 05:46:26;;;;;;;1.00;0.80;;;;;;;4.76;100.00;99666.50;5048745;28;20029;-77
2022/12/18 05:48:52;;;;;;;4.95;2.03;;;;;;;4.82;100.00;99676.50;5015423;28;20029;-76
2022/12/18 05:51:21;;;;;;;4.03;1.50;;;;;;;4.89;100.00;99686.47;4999501;28;20041;-75
2022/12/18 05:53:48;;;;;;;5.90;1.70;;;;;;;4.95;100.00;99680.47;5032063;28;20025;-76
2022/12/18 05:56:17;;;;;;;4.22;1.92;;;;;;;5.05;100.00;99670.50;5048263;28;20030;-76
2022/12/18 05:58:43;;;;;;;4.10;2.10;;;;;;;5.04;100.00;99661.69;5031777;28;20414;-76
2022/12/18 06:01:22;;;;;;;3.15;2.08;;;;;;;5.16;100.00;99677.31;4999650;28;20506;-76
2022/12/18 06:03:50;;;;;;;4.72;2.08;;;;;;;5.18;100.00;99649.50;5015723;28;20040;-76
2022/12/18 06:06:22;;;;;;;4.85;2.47;;;;;;;5.22;100.00;99639.34;5031900;28;20025;-77
2022/12/18 06:08:49;;;;;;;5.05;2.10;;;;;;;5.26;100.00;99641.50;5031609;28;20060;-77
2022/12/18 06:11:18;;;;;;;3.55;1.77;;;;;;;5.35;100.00;99601.53;5031835;28;20120;-76
2022/12/18 06:13:43;;;;;;;6.00;2.25;;;;;;;5.38;100.00;99607.34;5048626;28;20025;-77
2022/12/18 06:16:09;;;;;;;5.60;2.30;;;;;;;5.32;100.00;99596.50;5032061;28;20034;-76
2022/12/18 06:18:35;;;;;;;1.95;1.30;;;;;;;5.11;100.00;99579.25;5031593;28;20029;-76
2022/12/18 06:21:01;;;;;;;4.57;1.92;;;;;;;5.08;100.00;99582.25;5031480;28;20471;-77
2022/12/18 06:23:27;;;;;;;2.60;1.88;;;;;;;5.09;100.00;99585.75;5032924;28;20025;-76
2022/12/18 06:25:53;;;;;;;3.90;1.88;;;;;;;5.08;100.00;99566.28;5015766;28;20082;-76
2022/12/18 06:28:19;;;;;;;4.13;1.83;;;;;;;5.11;100.00;99565.06;4999242;28;20179;-77
2022/12/18 06:30:46;;;;;;;5.22;1.65;;;;;;;5.14;100.00;99562.94;5015506;28;20054;-77
2022/12/18 06:33:11;;;;;;;4.28;2.55;;;;;;;5.18;100.00;99560.75;5031501;28;20033;-77
2022/12/18 06:35:37;;;;;;;5.75;2.65;;;;;;;5.21;100.00;99552.41;5031446;28;20120;-76
2022/12/18 06:38:06;;;;;;;8.93;2.65;;;;;;;5.24;100.00;99560.91;5031375;28;20426;-77
2022/12/18 06:40:32;;;;;;;2.65;1.83;;;;;;;5.31;100.00;99553.03;5015289;28;20087;-77
2022/12/18 06:43:01;;;;;;;3.58;1.92;;;;;;;5.41;100.00;99555.53;5015355;28;20080;-76
2022/12/18 06:45:27;;;;;;;2.35;1.38;;;;;;;5.44;100.00;99552.50;4999996;28;20025;-77
2022/12/18 06:47:53;;;;;;;5.20;1.85;;;;;;;5.48;100.00;99535.16;4998985;28;20455;-77
2022/12/18 06:50:19;;;;;;;5.20;2.13;;;;;;;5.47;100.00;99512.16;5016129;28;20033;-77
2022/12/18 06:52:45;;;;;;;4.90;2.08;;;;;;;5.54;100.00;99515.81;5019365;28;20034;-77
2022/12/18 06:55:11;;;;;;;7.65;2.40;;;;;;;5.58;100.00;99511.78;5018673;28;20108;-78
2022/12/18 06:57:39;;;;;;;5.65;2.53;;;;;;;5.54;100.00;99496.31;5035171;28;20025;-77
2022/12/18 07:00:06;;;;;;;3.38;1.85;;;;;;;5.67;100.00;99491.25;5002239;28;20449;-77
2022/12/18 07:02:32;;;;;;;6.05;1.80;;;;;;;5.65;100.00;99485.25;5002518;28;20128;-77
2022/12/18 07:04:58;;;;;;;3.17;1.52;;;;;;;5.68;100.00;99471.56;5002321;28;20132;-77
2022/12/18 07:07:24;;;;;;;3.97;1.88;;;;;;;5.75;100.00;99475.19;5002787;28;20052;-78
2022/12/18 07:09:50;;;;;;;3.78;1.73;;;;;;;5.81;100.00;99463.81;5002540;28;20442;-76
2022/12/18 07:12:16;;;;;;;3.65;1.90;;;;;;;5.77;100.00;99451.00;5018431;28;20064;-77
2022/12/18 07:14:41;;;;;;;4.32;1.50;;;;;;;5.77;100.00;99440.31;5051695;28;20379;-77
2022/12/18 07:17:07;;;;;;;6.72;2.80;;;;;;;5.80;100.00;99448.00;5002443;28;20091;-78
2022/12/18 07:19:36;;;;;;;3.28;1.67;;;;;;;5.84;100.00;99447.44;5034656;28;20029;-78
2022/12/18 07:22:02;;;;;;;4.30;2.45;;;;;;;5.89;100.00;99439.75;5002764;28;20065;-76
2022/12/18 07:24:28;;;;;;;2.80;1.20;;;;;;;5.95;100.00;99424.91;5001932;28;20057;-77
2022/12/18 07:26:53;;;;;;;3.67;1.40;;;;;;;6.03;100.00;99442.69;5002383;28;20044;-77
2022/12/18 07:29:19;;;;;;;7.03;1.70;;;;;;;6.10;100.00;99430.28;5034725;28;20037;-77
2022/12/18 07:31:45;;;;;;;3.38;1.77;;;;;;;6.04;100.00;99426.50;5002044;28;20037;-77
2022/12/18 07:34:12;;;;;;;4.10;1.85;;;;;;;6.11;100.00;99432.78;5018434;28;20034;-77
2022/12/18 07:36:38;;;;;;;5.88;1.83;;;;;;;6.09;100.00;99428.63;5002103;28;20030;-77
2022/12/18 07:39:03;;;;;;;4.70;1.73;;;;;;;6.11;100.00;99419.44;5001340;28;20038;-77
2022/12/18 07:41:29;;;;;;;5.72;1.63;;;;;;;6.08;100.00;99385.09;5017895;28;20037;-78
2022/12/18 07:43:55;;;;;;;3.38;1.52;;;;;;;6.18;100.00;99394.69;5001887;28;20375;-77
2022/12/18 07:46:20;;;;;;;2.47;1.60;;;;;;;6.29;100.00;99381.72;5018101;28;20116;-77
2022/12/18 07:48:46;;;;;;;3.05;1.90;;;;;;;6.35;100.00;99370.34;5017661;28;20052;-77
2022/12/18 07:51:12;;;;;;;5.57;2.63;;;;;;;6.47;100.00;99370.72;5017575;28;20091;-78
2022/12/18 07:53:39;;;;;;;3.72;2.15;;;;;;;6.51;100.00;99368.50;5017676;28;20509;-76
2022/12/18 07:56:06;;;;;;;4.97;2.63;;;;;;;6.49;100.00;99368.69;5018122;28;20041;-77
2022/12/18 07:58:33;;;;;;;5.95;3.60;;;;;;;6.45;100.00;99338.00;5050781;28;20033;-78
2022/12/18 08:01:06;;;;;;;8.23;4.28;;;;;;;6.48;100.00;99351.00;5001391;28;20033;-77
2022/12/18 08:03:32;;;;;;;5.38;2.80;;;;;;;6.56;100.00;99334.91;5033640;28;20049;-77
2022/12/18 08:06:03;;;;;;;5.63;2.20;;;;;;;6.58;100.00;99332.84;5017377;28;20384;-77
2022/12/18 08:08:28;;;;;;;2.75;1.90;;;;;;;6.67;100.00;99327.41;5017569;28;20041;-78
2022/12/18 08:10:54;;;;;;;5.43;2.20;;;;;;;6.68;100.00;99329.09;5001508;28;20468;-78
2022/12/18 08:13:20;;;;;;;6.68;4.22;;;;;;;6.69;100.00;99325.38;5017350;28;20103;-77
2022/12/18 08:15:46;;;;;;;4.10;2.42;;;;;;;6.72;100.00;99314.34;5016920;28;20041;-78
2022/12/18 08:18:15;;;;;;;2.72;1.80;;;;;;;6.70;100.00;99295.00;5001427;28;20041;-78
2022/12/18 08:20:41;;;;;;;5.50;2.55;;;;;;;6.78;100.00;99300.25;5000889;28;20033;-78
2022/12/18 08:23:06;;;;;;;8.32;2.08;;;;;;;6.79;100.00;99291.22;5017386;28;20357;-78
2022/12/18 08:25:34;;;;;;;3.65;2.10;;;;;;;6.81;100.00;99289.19;5001043;28;20037;-78
2022/12/18 08:28:00;;;;;;;2.40;1.67;;;;;;;6.86;100.00;99281.44;5016728;28;20041;-77
2022/12/18 08:30:26;;;;;;;4.28;3.00;;;;;;;6.87;100.00;99272.38;5000761;28;20078;-78
2022/12/18 08:32:53;;;;;;;8.65;4.03;;;;;;;6.95;100.00;99287.47;5016955;28;20042;-79
2022/12/18 08:35:19;;;;;;;6.80;3.28;;;;;;;7.00;100.00;99291.25;5000787;28;20648;-81
2022/12/18 08:37:44;;;;;;;5.00;2.92;;;;;;;7.08;100.00;99282.28;5017085;28;20116;-78
2022/12/18 08:40:10;;;;;;;3.88;2.80;;;;;;;7.09;100.00;99283.94;5016603;28;20471;-77
2022/12/18 08:45:20;;;;;;;8.02;3.60;;;;;;;7.14;100.00;99272.69;5019645;28;20022;-77
2022/12/18 08:47:49;;;;;;;5.10;3.03;;;;;;;6.98;100.00;99221.13;5000469;28;20041;-79
2022/12/18 08:50:15;;;;;;;5.72;3.42;;;;;;;7.19;100.00;99248.88;5033370;28;20116;-77
2022/12/18 08:52:42;;;;;;;7.03;3.85;;;;;;;7.29;100.00;99253.91;5032685;28;20117;-79
2022/12/18 08:55:09;;;;;;;3.30;2.35;;;;;;;7.39;100.00;99260.59;5033434;28;20037;-78
2022/12/18 08:57:35;;;;;;;4.82;3.28;;;;;;;7.37;100.00;99262.63;5032354;28;20113;-80
2022/12/18 09:00:01;;;;;;;2.50;1.85;;;;;;;7.44;100.00;99249.34;5000080;28;20124;-78
2022/12/18 09:02:26;;;;;;;1.98;1.55;;;;;;;7.50;100.00;99248.56;5016401;28;20036;-77
2022/12/18 09:04:52;;;;;;;1.63;1.20;;;;;;;7.57;100.00;99240.56;5049420;28;20514;-77
2022/12/18 09:07:18;;;;;;;1.33;1.20;;;;;;;7.54;100.00;99239.13;5032854;28;20025;-78
2022/12/18 09:09:44;;;;;;;1.98;1.30;;;;;;;7.62;100.00;99239.00;5016419;28;20387;-78
2022/12/18 09:12:09;;;;;;;6.03;3.58;;;;;;;7.64;100.00;99228.91;4999568;28;20072;-78
2022/12/18 09:14:35;;;;;;;3.22;1.95;;;;;;;7.71;100.00;99239.66;5015226;28;20171;-78
2022/12/18 09:17:01;;;;;;;4.40;1.77;;;;;;;7.63;100.00;99197.84;5000099;28;20135;-78
2022/12/18 09:19:27;;;;;;;2.50;1.65;;;;;;;7.80;100.00;99229.63;5032616;28;20033;-77
2022/12/18 09:21:52;;;;;;;1.33;1.20;;;;;;;7.89;100.00;99218.59;5016464;28;20045;-79
2022/12/18 09:24:18;;;;;;;2.40;1.70;;;;;;;7.94;100.00;99209.97;5000063;28;20041;-78
2022/12/18 09:26:44;;;;;;;1.30;1.20;;;;;;;8.01;100.00;99205.47;4999754;28;20379;-79
2022/12/18 09:29:10;;;;;;;1.83;1.58;;;;;;;8.05;100.00;99189.88;5000088;28;20030;-80
2022/12/18 09:31:36;;;;;;;3.70;1.58;;;;;;;8.13;100.00;99203.09;4999840;28;20483;-81
2022/12/18 09:34:05;;;;;;;3.83;2.20;;;;;;;8.23;100.00;99195.53;4999279;28;20040;-78
2022/12/18 09:36:31;;;;;;;6.50;3.50;;;;;;;8.31;100.00;99203.38;5032369;28;20040;-77
2022/12/18 09:38:57;;;;;;;4.60;2.90;;;;;;;8.40;100.00;99206.75;5031730;28;20026;-77
2022/12/18 09:41:45;;;;;;;3.15;2.00;;;;;;;8.46;100.00;99175.66;5032487;28;20132;-79
2022/12/18 09:44:33;;;;;;;5.30;3.03;;;;;;;8.62;100.00;99188.66;4999131;28;20068;-79
2022/12/18 09:47:29;;;;;;;13.45;7.53;;;;;;;8.68;100.00;99195.94;4999870;28;20076;-79
2022/12/18 09:50:00;;;;;;;12.00;7.57;;;;;;;8.76;100.00;99193.06;4995079;28;20487;-80
2022/12/18 09:52:45;;;;;;;11.63;7.00;;;;;;;8.97;100.00;99167.09;5015937;28;20108;-79
2022/12/18 09:55:56;;;;;;;7.82;3.75;;;;;;;9.11;100.00;99171.47;5032041;28;20439;-76
2022/12/18 09:58:25;;;;;;;11.90;6.97;;;;;;;9.28;100.00;99163.81;5013834;28;20456;-79
2022/12/18 10:00:54;;;;;;;4.28;2.63;;;;;;;9.36;100.00;99168.16;5015407;28;20029;-75
2022/12/18 10:03:20;;;;;;;2.42;1.92;;;;;;;9.54;100.00;99165.66;5000412;28;20087;-79
2022/12/18 10:05:55;;;;;;;3.28;2.47;;;;;;;9.77;100.00;99151.81;5016027;28;20049;-82
2022/12/18 10:08:32;;;;;;;5.70;3.70;;;;;;;9.89;100.00;99154.66;5015630;28;20025;-84
2022/12/18 10:11:16;;;;;;;4.30;3.00;;;;;;;9.97;100.00;99132.94;5033427;28;20523;-84
2022/12/18 10:13:52;;;;;;;13.90;7.05;;;;;;;10.33;100.00;99139.66;5032573;28;20128;-81
2022/12/18 10:17:07;;;;;;;8.02;3.35;;;;;;;10.78;100.00;99142.31;5032555;28;20251;-84
2022/12/18 10:19:39;;;;;;;8.63;3.90;;;;;;;10.73;100.00;99126.00;5023774;28;20159;-83
2022/12/18 10:22:43;;;;;;;6.82;4.57;;;;;;;11.32;100.00;99146.25;5033127;28;20033;-83
2022/12/18 10:25:35;;;;;;;9.80;5.20;;;;;;;11.19;100.00;99119.44;5016191;28;20033;-82
2022/12/18 10:28:10;;;;;;;9.48;5.75;;;;;;;11.11;100.00;99114.34;5052826;28;20079;-83
2022/12/18 10:30:35;;;;;;;12.27;5.65;;;;;;;10.88;100.00;99099.66;5003517;28;20069;-81
2022/12/18 10:33:04;;;;;;;11.57;6.05;;;;;;;10.90;100.00;99100.25;5019561;28;20490;-80
2022/12/18 10:35:30;;;;;;;10.23;5.35;;;;;;;10.84;100.00;99087.66;5035819;28;20068;-81
2022/12/18 10:38:23;;;;;;;5.55;3.78;;;;;;;10.90;100.00;99097.56;5003515;28;20476;-83
2022/12/18 10:40:57;;;;;;;15.88;9.88;;;;;;;10.93;100.00;99099.81;5018204;28;20033;-83
2022/12/18 10:43:37;;;;;;;17.13;10.02;;;;;;;10.96;100.00;99091.31;5019716;28;20068;-83
2022/12/18 10:46:09;;;;;;;21.73;13.13;;;;;;;11.02;100.00;99094.16;5019438;28;20123;-88
2022/12/18 10:48:47;;;;;;;23.73;15.75;;;;;;;10.94;100.00;99100.63;5036638;28;20037;-85
2022/12/18 10:51:33;;;;;;;11.20;6.57;;;;;;;10.80;100.00;99089.16;5035777;28;20130;-89
2022/12/18 10:54:14;;;;;;;7.85;4.35;;;;;;;10.77;100.00;99106.53;5018984;28;20126;-87
2022/12/18 10:56:40;;;;;;;8.02;4.75;;;;;;;10.70;100.00;99099.56;5002755;28;20064;-88
2022/12/18 10:59:08;;;;;;;4.93;2.65;;;;;;;10.72;100.00;99098.31;5036975;28;20436;-88
2022/12/18 11:01:52;;;;;;;13.57;8.50;;;;;;;10.66;100.00;99101.03;5002682;28;20395;-88
2022/12/18 11:04:29;;;;;;;9.23;5.22;;;;;;;10.53;100.00;99092.03;5002948;28;20037;-89
2022/12/18 11:06:56;;;;;;;8.82;3.97;;;;;;;10.39;100.00;99092.31;5019087;28;20033;-88
2022/12/18 11:09:34;;;;;;;13.07;6.13;;;;;;;10.46;100.00;99101.97;5037314;28;20512;-88
2022/12/18 11:12:02;;;;;;;12.38;7.03;;;;;;;10.51;100.00;99086.03;5002414;28;20045;-86
2022/12/18 11:14:42;;;;;;;8.07;5.60;;;;;;;10.50;100.00;99081.69;5002373;28;20033;-89
2022/12/18 11:17:19;;;;;;;7.28;4.80;;;;;;;10.42;100.00;99078.44;5001931;28;20035;-89
2022/12/18 11:19:44;;;;;;;5.72;4.35;;;;;;;10.47;100.00;99076.75;5034608;28;20467;-87
2022/12/18 11:22:26;;;;;;;7.53;4.65;;;;;;;10.63;100.00;99079.97;5018707;28;20034;-89
2022/12/18 11:25:21;;;;;;;12.15;5.88;;;;;;;10.76;100.00;99066.44;5002756;28;20045;-89
2022/12/18 11:27:53;;;;;;;8.88;4.78;;;;;;;10.85;100.00;99061.59;5030646;28;20065;-86
2022/12/18 11:30:25;;;;;;;5.40;3.80;;;;;;;10.75;100.00;99030.66;5018875;28;20115;-89
2022/12/18 11:33:02;;;;;;;3.28;2.22;;;;;;;10.92;100.00;99055.13;5035488;28;20463;-83
2022/12/18 11:35:28;;;;;;;3.25;2.28;;;;;;;10.99;100.00;99041.63;5018369;28;20038;-84
2022/12/18 11:37:59;;;;;;;3.67;2.22;;;;;;;11.04;100.00;99027.53;5035434;28;20482;-87
2022/12/18 11:40:34;;;;;;;5.10;3.72;;;;;;;11.05;100.00;99029.16;5018027;28;20030;-87
2022/12/18 11:43:07;;;;;;;5.93;2.55;;;;;;;11.09;100.00;99023.13;5051024;28;20044;-85
2022/12/18 11:45:41;;;;;;;3.85;2.75;;;;;;;11.14;100.00;99009.00;5018119;28;20387;-83